Time;durP1;ratioP1;P1;durP2;ratioP2;P2;SDS_P1;SDS_P2;PMS_P1;PMS_P2;Temp;Humidity;BMP_temperature;BMP_pressure;BME280_temperature;BME280_humidity;BME280_pressure;Samples;Min_cycle;Max_cycle;Signal;HPM_P1;HPM_P2
2023/01/22 00:01:31;;;;;;;;;;;0.30;99.90;;;;;;5009907;28;20011;-66
2023/01/22 00:03:57;;;;;;;;;;;0.30;99.90;;;;;;5011224;28;19948;-67
2023/01/22 00:06:23;;;;;;;;;;;0.30;99.90;;;;;;5011833;28;19967;-66
2023/01/22 00:08:49;;;;;;;;;;;0.30;99.90;;;;;;5005042;28;19909;-66
2023/01/22 00:11:15;;;;;;;;;;;0.20;99.90;;;;;;5011197;28;19992;-66
2023/01/22 00:13:41;;;;;;;;;;;-0.10;99.90;;;;;;5008981;28;19996;-66
2023/01/22 00:16:07;;;;;;;;;;;-0.40;99.90;;;;;;5005389;28;20357;-65
2023/01/22 00:18:33;;;;;;;;;;;-0.60;99.90;;;;;;5007548;28;19909;-67
2023/01/22 00:20:59;;;;;;;;;;;-0.80;99.90;;;;;;5012161;28;19909;-66
2023/01/22 00:23:27;;;;;;;;;;;-1.00;99.90;;;;;;5010716;28;20377;-66
2023/01/22 00:26:00;;;;;;;;;;;-1.00;99.90;;;;;;5006427;28;20340;-66
2023/01/22 00:28:26;;;;;;;;;;;-0.90;99.90;;;;;;5006408;28;19909;-67
2023/01/22 00:30:59;;;;;;;;;;;-0.50;99.90;;;;;;5008551;28;20440;-67
2023/01/22 00:33:24;;;;;;;;;;;-0.10;99.90;;;;;;5010100;28;19912;-67
2023/01/22 00:35:50;;;;;;;;;;;0.10;99.90;;;;;;5010111;28;19909;-67
2023/01/22 00:38:17;;;;;;;;;;;0.30;99.90;;;;;;5011551;28;19909;-67
2023/01/22 00:40:42;;;;;;;;;;;0.40;99.90;;;;;;5008530;28;20335;-67
2023/01/22 00:43:08;;;;;;;;;;;0.50;99.90;;;;;;5010844;28;19917;-66
2023/01/22 00:45:34;;;;;;;;;;;0.50;99.90;;;;;;5007151;28;19913;-66
2023/01/22 00:48:00;;;;;;;;;;;0.40;99.90;;;;;;5009746;28;19909;-66
2023/01/22 00:50:26;;;;;;;;;;;0.40;99.90;;;;;;5010667;28;19956;-66
2023/01/22 00:52:51;;;;;;;;;;;0.40;99.90;;;;;;5007852;28;19952;-66
2023/01/22 00:55:17;;;;;;;;;;;0.30;99.90;;;;;;5004025;28;19936;-67
2023/01/22 00:57:46;;;;;;;;;;;0.20;99.90;;;;;;5010160;28;19913;-66
2023/01/22 01:00:13;;;;;;;;;;;0.20;99.90;;;;;;5011084;28;19919;-66
2023/01/22 01:05:26;;;;;;;;;;;0.10;99.90;;;;;;5005382;28;20269;-66
2023/01/22 01:07:52;;;;;;;;;;;-0.30;99.90;;;;;;5007654;28;20385;-66
2023/01/22 01:10:18;;;;;;;;;;;-0.50;99.90;;;;;;5005371;28;19909;-66
2023/01/22 01:12:43;;;;;;;;;;;-0.80;99.90;;;;;;5005922;28;19909;-66
2023/01/22 01:15:09;;;;;;;;;;;-0.90;99.90;;;;;;5003422;28;19910;-66
2023/01/22 01:17:35;;;;;;;;;;;-0.90;99.90;;;;;;5000112;28;19921;-66
2023/01/22 01:20:01;;;;;;;;;;;-0.90;99.90;;;;;;5008683;28;19955;-67
2023/01/22 01:22:26;;;;;;;;;;;-0.90;99.90;;;;;;5007600;28;19963;-66
2023/01/22 01:24:52;;;;;;;;;;;-0.80;99.90;;;;;;5014537;28;19978;-66
2023/01/22 01:27:18;;;;;;;;;;;-0.50;99.90;;;;;;5007163;28;19921;-66
2023/01/22 01:29:43;;;;;;;;;;;0.00;99.90;;;;;;5009104;28;19910;-67
2023/01/22 01:32:09;;;;;;;;;;;0.00;99.90;;;;;;5007291;28;19916;-66
2023/01/22 01:34:34;;;;;;;;;;;0.00;99.90;;;;;;5008501;28;19936;-67
2023/01/22 01:37:00;;;;;;;;;;;-0.10;99.90;;;;;;5007304;28;19937;-67
2023/01/22 01:39:26;;;;;;;;;;;-0.20;99.90;;;;;;5009934;28;19909;-67
2023/01/22 01:41:51;;;;;;;;;;;-0.40;99.90;;;;;;5009743;28;20336;-66
2023/01/22 01:44:19;;;;;;;;;;;-0.50;99.90;;;;;;5004029;28;20416;-67
2023/01/22 01:46:52;;;;;;;;;;;-0.60;99.90;;;;;;5008046;28;19921;-66
2023/01/22 01:49:21;;;;;;;;;;;-0.70;99.90;;;;;;5010209;28;20316;-67
2023/01/22 01:51:47;;;;;;;;;;;-0.80;99.90;;;;;;5005084;28;19967;-66
2023/01/22 01:54:12;;;;;;;;;;;-0.80;99.90;;;;;;5008387;28;19999;-66
2023/01/22 01:56:41;;;;;;;;;;;-0.80;99.90;;;;;;5006783;28;20315;-66
2023/01/22 01:59:09;;;;;;;;;;;-0.40;99.90;;;;;;5008276;28;19964;-66
2023/01/22 02:01:35;;;;;;;;;;;0.20;99.90;;;;;;5007291;28;20118;-66
2023/01/22 02:04:01;;;;;;;;;;;0.50;99.90;;;;;;5007033;28;20384;-66
2023/01/22 02:06:27;;;;;;;;;;;0.80;99.90;;;;;;5006455;28;19921;-66
2023/01/22 02:08:53;;;;;;;;;;;0.90;99.90;;;;;;5010421;28;20417;-66
2023/01/22 02:11:20;;;;;;;;;;;0.90;99.90;;;;;;5009063;28;19909;-66
2023/01/22 02:13:59;;;;;;;;;;;0.80;99.90;;;;;;5007508;28;20550;-66
2023/01/22 02:16:24;;;;;;;;;;;0.70;99.90;;;;;;5003946;28;19949;-66
2023/01/22 02:18:50;;;;;;;;;;;0.60;99.90;;;;;;5006957;28;20379;-66
2023/01/22 02:21:34;;;;;;;;;;;0.50;99.90;;;;;;5010005;28;19996;-66
2023/01/22 02:24:00;;;;;;;;;;;0.50;99.90;;;;;;5009172;28;19910;-66
2023/01/22 02:26:26;;;;;;;;;;;0.40;99.90;;;;;;5008602;28;19953;-66
2023/01/22 02:28:52;;;;;;;;;;;0.40;99.90;;;;;;5008967;28;20003;-67
2023/01/22 02:31:17;;;;;;;;;;;0.30;99.90;;;;;;5009549;28;19909;-66
2023/01/22 02:33:43;;;;;;;;;;;0.40;99.90;;;;;;5005138;28;19929;-66
2023/01/22 02:36:09;;;;;;;;;;;0.30;99.90;;;;;;5004213;28;19963;-66
2023/01/22 02:38:34;;;;;;;;;;;0.40;99.90;;;;;;5007430;28;19915;-66
2023/01/22 02:41:00;;;;;;;;;;;0.30;99.90;;;;;;5010082;28;19924;-66
2023/01/22 02:43:26;;;;;;;;;;;0.10;99.90;;;;;;5008613;28;19924;-66
2023/01/22 02:45:52;;;;;;;;;;;0.00;99.90;;;;;;5009295;28;19917;-66
2023/01/22 02:48:17;;;;;;;;;;;-0.10;99.90;;;;;;5009137;28;19909;-66
2023/01/22 02:50:44;;;;;;;;;;;-0.20;99.90;;;;;;5007998;28;19909;-66
2023/01/22 02:53:09;;;;;;;;;;;-0.20;99.90;;;;;;5011070;28;19996;-66
2023/01/22 02:55:36;;;;;;;;;;;-0.20;99.90;;;;;;5011414;28;19963;-65
2023/01/22 02:58:01;;;;;;;;;;;-0.20;99.90;;;;;;5011348;28;19963;-66
2023/01/22 03:00:27;;;;;;;;;;;-0.20;99.90;;;;;;5012080;28;19963;-66
2023/01/22 03:02:53;;;;;;;;;;;-0.20;99.90;;;;;;5012569;28;20007;-66
2023/01/22 03:05:18;;;;;;;;;;;-0.10;99.90;;;;;;5011705;28;20015;-66
2023/01/22 03:07:44;;;;;;;;;;;0.00;99.90;;;;;;5011018;28;19925;-66
2023/01/22 03:10:14;;;;;;;;;;;0.30;99.90;;;;;;5013516;28;20513;-65
2023/01/22 03:23:36;;;;;;;;;;;0.90;99.90;;;;;;5009216;28;19963;-66
2023/01/22 03:26:02;;;;;;;;;;;1.00;99.90;;;;;;5010494;28;19925;-66
2023/01/22 03:28:28;;;;;;;;;;;1.20;99.90;;;;;;5008960;28;20422;-66
2023/01/22 03:30:54;;;;;;;;;;;1.30;99.90;;;;;;5002165;28;19916;-66
2023/01/22 03:33:19;;;;;;;;;;;1.10;99.90;;;;;;5011622;28;20272;-66
2023/01/22 03:35:45;;;;;;;;;;;0.90;99.90;;;;;;5001698;28;19913;-66
2023/01/22 03:38:11;;;;;;;;;;;0.70;99.90;;;;;;5010752;28;19913;-66
2023/01/22 03:40:36;;;;;;;;;;;0.60;99.90;;;;;;5006236;28;19964;-67
2023/01/22 03:43:02;;;;;;;;;;;0.50;99.90;;;;;;5011155;28;20372;-67
2023/01/22 03:45:27;;;;;;;;;;;0.40;99.90;;;;;;5005562;28;19916;-67
2023/01/22 03:47:53;;;;;;;;;;;0.40;99.90;;;;;;5008452;28;19909;-66
2023/01/22 03:50:19;;;;;;;;;;;0.30;99.90;;;;;;5000556;28;19917;-67
2023/01/22 03:52:45;;;;;;;;;;;0.30;99.90;;;;;;5008970;28;19940;-66
2023/01/22 03:55:10;;;;;;;;;;;0.20;99.90;;;;;;5006406;28;19937;-66
2023/01/22 03:57:36;;;;;;;;;;;0.20;99.90;;;;;;5008333;28;19956;-66
2023/01/22 04:00:06;;;;;;;;;;;0.30;99.90;;;;;;4998479;28;19937;-66
2023/01/22 04:02:32;;;;;;;;;;;0.20;99.90;;;;;;5006555;28;19940;-66
2023/01/22 04:04:57;;;;;;;;;;;0.20;99.90;;;;;;5009072;28;19932;-66
2023/01/22 04:07:23;;;;;;;;;;;0.30;99.90;;;;;;5001050;28;20374;-65
2023/01/22 04:09:49;;;;;;;;;;;0.20;99.90;;;;;;5006459;28;19978;-67
2023/01/22 04:12:14;;;;;;;;;;;0.20;99.90;;;;;;5008665;28;20419;-66
2023/01/22 04:14:40;;;;;;;;;;;0.20;99.90;;;;;;5010155;28;20280;-67
2023/01/22 04:17:05;;;;;;;;;;;0.20;99.90;;;;;;5010798;28;19909;-66
2023/01/22 04:19:31;;;;;;;;;;;0.20;99.90;;;;;;5004427;28;20015;-66
2023/01/22 04:21:57;;;;;;;;;;;0.20;99.90;;;;;;5007243;28;19909;-67
2023/01/22 04:24:22;;;;;;;;;;;0.20;99.90;;;;;;5012188;28;19910;-67
2023/01/22 04:26:48;;;;;;;;;;;0.30;99.90;;;;;;4999598;28;19921;-66
2023/01/22 04:29:13;;;;;;;;;;;0.30;99.90;;;;;;5011588;28;19917;-67
2023/01/22 04:31:39;;;;;;;;;;;0.30;99.90;;;;;;5002013;28;19916;-67
2023/01/22 04:34:05;;;;;;;;;;;0.30;99.90;;;;;;5004003;28;20449;-67
2023/01/22 04:36:30;;;;;;;;;;;0.30;99.90;;;;;;5004426;28;19967;-67
2023/01/22 04:38:56;;;;;;;;;;;0.30;99.90;;;;;;5008155;28;19956;-66
2023/01/22 04:41:21;;;;;;;;;;;0.30;99.90;;;;;;4997996;28;19913;-67
2023/01/22 04:43:47;;;;;;;;;;;0.40;99.90;;;;;;4998974;28;20334;-66
2023/01/22 04:46:13;;;;;;;;;;;0.30;99.90;;;;;;5010405;28;19976;-66
2023/01/22 04:48:38;;;;;;;;;;;0.30;99.90;;;;;;5001345;28;19910;-66
2023/01/22 04:51:04;;;;;;;;;;;0.50;99.90;;;;;;4996403;28;20277;-66
2023/01/22 04:53:29;;;;;;;;;;;0.70;99.90;;;;;;4999245;28;19962;-66
2023/01/22 04:55:55;;;;;;;;;;;0.80;99.90;;;;;;5007076;28;20295;-66
2023/01/22 04:58:20;;;;;;;;;;;0.60;99.90;;;;;;5005773;28;19910;-66
2023/01/22 05:00:46;;;;;;;;;;;0.50;99.90;;;;;;5000688;28;20600;-66
2023/01/22 05:03:12;;;;;;;;;;;0.30;99.90;;;;;;5004763;28;19919;-66
2023/01/22 05:05:38;;;;;;;;;;;0.30;99.90;;;;;;5009463;28;19909;-66
2023/01/22 05:08:04;;;;;;;;;;;0.20;99.90;;;;;;5010029;28;19979;-67
2023/01/22 05:10:29;;;;;;;;;;;0.20;99.90;;;;;;5007563;28;20285;-67
2023/01/22 05:12:55;;;;;;;;;;;0.30;99.90;;;;;;5007294;28;19917;-66
2023/01/22 05:15:20;;;;;;;;;;;0.20;99.90;;;;;;5009963;28;19957;-66
2023/01/22 05:17:46;;;;;;;;;;;0.20;99.90;;;;;;5008495;28;20874;-67
2023/01/22 05:20:12;;;;;;;;;;;0.20;99.90;;;;;;5011115;28;20403;-67
2023/01/22 05:22:37;;;;;;;;;;;0.20;99.90;;;;;;5006509;28;19963;-67
2023/01/22 05:25:03;;;;;;;;;;;0.20;99.90;;;;;;5010097;28;19909;-67
2023/01/22 05:27:29;;;;;;;;;;;0.20;99.90;;;;;;5005715;28;19921;-67
2023/01/22 05:29:54;;;;;;;;;;;0.20;99.90;;;;;;5010731;28;19932;-67
2023/01/22 05:32:20;;;;;;;;;;;0.30;99.90;;;;;;5008455;28;19917;-67
2023/01/22 05:34:45;;;;;;;;;;;0.30;99.90;;;;;;5008491;28;19967;-67
2023/01/22 05:37:11;;;;;;;;;;;0.40;99.90;;;;;;5004785;28;19963;-66
2023/01/22 05:39:37;;;;;;;;;;;0.40;99.90;;;;;;5000426;28;20004;-67
2023/01/22 05:42:04;;;;;;;;;;;0.30;99.90;;;;;;5005434;28;20256;-66
2023/01/22 05:44:29;;;;;;;;;;;0.30;99.90;;;;;;5005390;28;19917;-67
2023/01/22 05:46:55;;;;;;;;;;;0.30;99.90;;;;;;5005925;28;19924;-67
2023/01/22 05:49:21;;;;;;;;;;;0.30;99.90;;;;;;4997436;28;19916;-67
2023/01/22 05:51:46;;;;;;;;;;;0.20;99.90;;;;;;4998908;28;20362;-67
2023/01/22 05:54:12;;;;;;;;;;;0.20;99.90;;;;;;5007231;28;20286;-67
2023/01/22 05:56:37;;;;;;;;;;;0.40;99.90;;;;;;4995526;28;19910;-66
2023/01/22 05:59:03;;;;;;;;;;;0.50;99.90;;;;;;5007843;28;20357;-67
2023/01/22 06:01:29;;;;;;;;;;;0.70;99.90;;;;;;4999990;28;19910;-67
2023/01/22 06:03:54;;;;;;;;;;;0.90;99.90;;;;;;5009284;28;19956;-67
2023/01/22 06:06:20;;;;;;;;;;;1.00;99.90;;;;;;4996733;28;19928;-67
2023/01/22 06:08:47;;;;;;;;;;;0.90;99.90;;;;;;5005639;28;19919;-67
2023/01/22 06:11:13;;;;;;;;;;;1.00;99.90;;;;;;5005284;28;19975;-66
2023/01/22 06:13:39;;;;;;;;;;;1.10;99.90;;;;;;4995402;28;19913;-66
2023/01/22 06:16:06;;;;;;;;;;;1.20;99.90;;;;;;5002390;28;19964;-67
2023/01/22 06:18:32;;;;;;;;;;;1.30;99.90;;;;;;5006608;28;19917;-67
2023/01/22 06:20:58;;;;;;;;;;;1.30;99.90;;;;;;5000273;28;19909;-67
2023/01/22 06:23:25;;;;;;;;;;;1.30;99.90;;;;;;5008238;28;19909;-67
2023/01/22 06:25:52;;;;;;;;;;;1.30;99.90;;;;;;5005679;28;19910;-67
2023/01/22 06:28:17;;;;;;;;;;;1.30;99.90;;;;;;5005291;28;20327;-67
2023/01/22 06:30:43;;;;;;;;;;;1.40;99.90;;;;;;5007962;28;19955;-66
2023/01/22 06:33:09;;;;;;;;;;;1.40;99.90;;;;;;5005609;28;19916;-67
2023/01/22 06:35:35;;;;;;;;;;;1.40;99.90;;;;;;5002347;28;19909;-66
2023/01/22 06:38:00;;;;;;;;;;;1.40;99.90;;;;;;5007458;28;20380;-66
2023/01/22 06:40:26;;;;;;;;;;;1.50;99.90;;;;;;5006686;28;20296;-67
2023/01/22 06:42:51;;;;;;;;;;;1.40;99.90;;;;;;5007107;28;20304;-67
2023/01/22 06:45:17;;;;;;;;;;;1.20;99.90;;;;;;5009986;28;19971;-67
2023/01/22 06:47:43;;;;;;;;;;;1.00;99.90;;;;;;5007636;28;20432;-67
2023/01/22 06:50:09;;;;;;;;;;;0.80;99.90;;;;;;5001897;28;19949;-67
2023/01/22 06:52:35;;;;;;;;;;;0.70;99.90;;;;;;5007970;28;19917;-67
2023/01/22 06:55:01;;;;;;;;;;;0.70;99.90;;;;;;5009847;28;19910;-67
2023/01/22 06:57:26;;;;;;;;;;;0.70;99.90;;;;;;5004805;28;19919;-66
2023/01/22 06:59:53;;;;;;;;;;;0.70;99.90;;;;;;5002069;28;19957;-67
2023/01/22 07:02:19;;;;;;;;;;;0.70;99.90;;;;;;5009520;28;19909;-68
2023/01/22 07:04:44;;;;;;;;;;;1.00;99.90;;;;;;5005848;28;19940;-67
2023/01/22 07:07:10;;;;;;;;;;;1.20;99.90;;;;;;5005406;28;19917;-67
2023/01/22 07:09:36;;;;;;;;;;;1.30;99.90;;;;;;5007394;28;19917;-66
2023/01/22 07:12:02;;;;;;;;;;;1.40;99.90;;;;;;5008689;28;19991;-66
2023/01/22 07:14:27;;;;;;;;;;;1.40;99.90;;;;;;4999615;28;19909;-66
2023/01/22 07:16:54;;;;;;;;;;;1.50;99.90;;;;;;5007580;28;19910;-66
2023/01/22 07:19:19;;;;;;;;;;;1.40;99.90;;;;;;5008016;28;20312;-67
2023/01/22 07:21:45;;;;;;;;;;;1.40;99.90;;;;;;5008079;28;20098;-66
2023/01/22 07:24:11;;;;;;;;;;;1.40;99.90;;;;;;5009017;28;20032;-65
2023/01/22 07:26:39;;;;;;;;;;;1.40;99.90;;;;;;5005616;28;20025;-66
2023/01/22 07:29:05;;;;;;;;;;;1.40;99.90;;;;;;5008151;28;19949;-67
2023/01/22 07:31:31;;;;;;;;;;;1.30;99.90;;;;;;5006589;28;19989;-66
2023/01/22 07:33:57;;;;;;;;;;;1.30;99.90;;;;;;5009726;28;19909;-66
2023/01/22 07:36:22;;;;;;;;;;;1.20;99.90;;;;;;5001882;28;19914;-67
2023/01/22 07:38:48;;;;;;;;;;;1.20;99.90;;;;;;5008626;28;19940;-67
2023/01/22 07:41:14;;;;;;;;;;;1.30;99.90;;;;;;5025054;28;19948;-67
2023/01/22 07:43:39;;;;;;;;;;;1.30;99.90;;;;;;5005505;28;19964;-67
2023/01/22 07:46:05;;;;;;;;;;;1.30;99.90;;;;;;5009215;28;19925;-67
2023/01/22 07:48:31;;;;;;;;;;;1.30;99.90;;;;;;5001803;28;20369;-68
2023/01/22 07:51:04;;;;;;;;;;;1.20;99.90;;;;;;5012068;28;19909;-66
2023/01/22 07:53:29;;;;;;;;;;;1.20;99.90;;;;;;5007700;28;19909;-66
2023/01/22 07:55:55;;;;;;;;;;;1.20;99.90;;;;;;5012611;28;19917;-65
2023/01/22 07:58:21;;;;;;;;;;;1.10;99.90;;;;;;5001977;28;20393;-67
2023/01/22 08:00:47;;;;;;;;;;;1.00;99.90;;;;;;5008605;28;20288;-66
2023/01/22 08:03:14;;;;;;;;;;;0.90;99.90;;;;;;5008539;28;19913;-66
2023/01/22 08:05:40;;;;;;;;;;;1.00;99.90;;;;;;5010227;28;20350;-67
2023/01/22 08:08:10;;;;;;;;;;;1.00;99.90;;;;;;5006264;28;19997;-67
2023/01/22 08:10:37;;;;;;;;;;;1.00;99.90;;;;;;5008468;28;19936;-67
2023/01/22 08:13:02;;;;;;;;;;;0.90;99.90;;;;;;5005528;28;19909;-66
2023/01/22 08:15:28;;;;;;;;;;;0.80;99.90;;;;;;5006717;28;20004;-66
2023/01/22 08:17:54;;;;;;;;;;;0.80;99.90;;;;;;5002982;28;20031;-66
2023/01/22 08:20:20;;;;;;;;;;;0.80;99.90;;;;;;5009238;28;19914;-66
2023/01/22 08:22:46;;;;;;;;;;;0.80;99.90;;;;;;5002890;28;20373;-66
2023/01/22 08:25:11;;;;;;;;;;;0.70;99.90;;;;;;5002982;28;19917;-66
2023/01/22 08:27:37;;;;;;;;;;;0.70;99.90;;;;;;5002508;28;20384;-67
2023/01/22 08:30:03;;;;;;;;;;;0.60;99.90;;;;;;5001871;28;20008;-67
2023/01/22 08:32:29;;;;;;;;;;;0.60;99.90;;;;;;5008927;28;20421;-67
2023/01/22 08:34:55;;;;;;;;;;;0.60;99.90;;;;;;5008858;28;19996;-67
2023/01/22 08:37:21;;;;;;;;;;;0.60;99.90;;;;;;5005773;28;19909;-66
2023/01/22 08:39:50;;;;;;;;;;;0.50;99.90;;;;;;5008670;28;20365;-66
2023/01/22 08:42:16;;;;;;;;;;;0.40;99.90;;;;;;5003840;28;19916;-66
2023/01/22 08:44:41;;;;;;;;;;;0.30;99.90;;;;;;5008915;28;19917;-67
2023/01/22 08:47:09;;;;;;;;;;;0.30;99.90;;;;;;5006360;28;20124;-67
2023/01/22 08:49:35;;;;;;;;;;;0.20;99.90;;;;;;5009710;28;19909;-67
2023/01/22 08:52:00;;;;;;;;;;;0.30;99.90;;;;;;5002089;28;19932;-67
2023/01/22 08:54:26;;;;;;;;;;;0.30;99.90;;;;;;5003726;28;20281;-67
2023/01/22 08:56:51;;;;;;;;;;;0.30;99.90;;;;;;5001040;28;19909;-67
2023/01/22 08:59:17;;;;;;;;;;;0.30;99.90;;;;;;5007474;28;19937;-67
2023/01/22 09:01:43;;;;;;;;;;;0.30;99.90;;;;;;5005360;28;19955;-66
2023/01/22 09:04:09;;;;;;;;;;;0.30;99.90;;;;;;5006622;28;19914;-66
2023/01/22 09:06:36;;;;;;;;;;;0.30;99.90;;;;;;4997431;28;19917;-66
2023/01/22 09:09:02;;;;;;;;;;;0.30;99.90;;;;;;5009319;28;20372;-66
2023/01/22 09:11:28;;;;;;;;;;;0.30;99.90;;;;;;5005784;28;19955;-67
2023/01/22 09:13:55;;;;;;;;;;;0.40;99.90;;;;;;5008506;28;19906;-67
2023/01/22 09:16:22;;;;;;;;;;;0.40;99.90;;;;;;5001871;28;19910;-67
2023/01/22 09:18:48;;;;;;;;;;;0.40;99.90;;;;;;5001395;28;20519;-66
2023/01/22 09:21:14;;;;;;;;;;;0.40;99.90;;;;;;5006923;28;19913;-66
2023/01/22 09:23:39;;;;;;;;;;;0.40;99.90;;;;;;5003698;28;19957;-66
2023/01/22 09:26:05;;;;;;;;;;;0.40;99.90;;;;;;5010276;28;19952;-66
2023/01/22 09:28:31;;;;;;;;;;;0.50;99.90;;;;;;5000238;28;20250;-65
2023/01/22 09:30:56;;;;;;;;;;;0.50;99.90;;;;;;5004414;28;19910;-65
2023/01/22 09:33:22;;;;;;;;;;;0.60;99.90;;;;;;5007773;28;19935;-64
2023/01/22 09:35:48;;;;;;;;;;;0.70;99.90;;;;;;5007340;28;20392;-65
2023/01/22 09:38:13;;;;;;;;;;;0.90;99.90;;;;;;5004700;28;19916;-65
2023/01/22 09:40:47;;;;;;;;;;;1.10;99.90;;;;;;5000780;28;19909;-66
2023/01/22 09:43:23;;;;;;;;;;;1.30;99.90;;;;;;5006453;28;19921;-65
2023/01/22 09:45:51;;;;;;;;;;;1.50;99.90;;;;;;5001629;28;19914;-65
2023/01/22 09:48:17;;;;;;;;;;;1.70;99.90;;;;;;5002836;28;19960;-65
2023/01/22 09:50:43;;;;;;;;;;;1.80;99.90;;;;;;5003046;28;19909;-65
2023/01/22 09:53:12;;;;;;;;;;;1.90;99.90;;;;;;5009417;28;19909;-64
2023/01/22 09:55:42;;;;;;;;;;;2.00;99.90;;;;;;4996343;28;19910;-65
2023/01/22 09:58:11;;;;;;;;;;;2.00;99.90;;;;;;5003330;28;19916;-64
2023/01/22 10:00:38;;;;;;;;;;;2.00;99.90;;;;;;5003518;28;20048;-65
2023/01/22 10:03:22;;;;;;;;;;;2.00;99.90;;;;;;5006652;28;19917;-65
2023/01/22 10:05:51;;;;;;;;;;;1.90;99.90;;;;;;5000205;28;19917;-64
2023/01/22 10:08:43;;;;;;;;;;;1.80;99.90;;;;;;5005578;28;19913;-65
2023/01/22 10:11:09;;;;;;;;;;;1.80;99.90;;;;;;4980428;28;19910;-65
2023/01/22 10:13:36;;;;;;;;;;;1.90;99.90;;;;;;4997318;28;20359;-64
2023/01/22 10:16:03;;;;;;;;;;;2.00;99.90;;;;;;5002774;28;19920;-64
2023/01/22 10:18:45;;;;;;;;;;;2.00;99.90;;;;;;4991546;28;19917;-65
2023/01/22 10:21:22;;;;;;;;;;;2.00;99.90;;;;;;4998973;28;20354;-65
2023/01/22 10:23:49;;;;;;;;;;;1.90;99.90;;;;;;5021234;28;20901;-65
2023/01/22 10:26:20;;;;;;;;;;;1.90;99.90;;;;;;5003166;28;19917;-65
2023/01/22 10:28:51;;;;;;;;;;;1.90;99.90;;;;;;5004912;28;20055;-65
2023/01/22 10:31:29;;;;;;;;;;;1.90;99.90;;;;;;5003535;28;20365;-65
2023/01/22 10:33:59;;;;;;;;;;;1.90;99.90;;;;;;5000638;28;19933;-65
2023/01/22 10:36:26;;;;;;;;;;;2.00;99.90;;;;;;5009016;28;19928;-66
2023/01/22 10:39:02;;;;;;;;;;;2.00;99.90;;;;;;5004055;28;19917;-66
2023/01/22 10:41:28;;;;;;;;;;;2.00;99.90;;;;;;5002502;28;20281;-65
2023/01/22 10:43:54;;;;;;;;;;;2.00;99.90;;;;;;5004389;28;20390;-65
2023/01/22 10:46:23;;;;;;;;;;;1.90;99.90;;;;;;4995325;28;20016;-65
2023/01/22 10:48:58;;;;;;;;;;;2.10;99.90;;;;;;5000838;28;20423;-65
2023/01/22 10:51:26;;;;;;;;;;;2.20;99.90;;;;;;5009885;28;19914;-65
2023/01/22 10:53:53;;;;;;;;;;;2.20;99.90;;;;;;5006059;28;19913;-65
2023/01/22 10:56:24;;;;;;;;;;;2.30;99.90;;;;;;4999101;28;19952;-64
2023/01/22 10:58:50;;;;;;;;;;;2.40;99.90;;;;;;5000081;28;19909;-66
2023/01/22 11:01:28;;;;;;;;;;;2.40;99.90;;;;;;4997468;28;19909;-65
2023/01/22 11:03:54;;;;;;;;;;;2.50;99.90;;;;;;4998046;28;19909;-64
2023/01/22 11:06:40;;;;;;;;;;;2.50;99.90;;;;;;4995352;28;19917;-65
2023/01/22 11:09:11;;;;;;;;;;;2.60;99.90;;;;;;5003055;28;20016;-66
2023/01/22 11:11:41;;;;;;;;;;;2.60;99.90;;;;;;5003162;28;19909;-64
2023/01/22 11:14:12;;;;;;;;;;;2.70;99.90;;;;;;5003957;28;19996;-65
2023/01/22 11:16:39;;;;;;;;;;;2.70;99.90;;;;;;5009111;28;19913;-66
2023/01/22 11:19:13;;;;;;;;;;;2.90;99.90;;;;;;5004185;28;19916;-68
2023/01/22 11:21:46;;;;;;;;;;;2.90;99.90;;;;;;5009896;28;19910;-64
2023/01/22 11:24:14;;;;;;;;;;;3.10;99.90;;;;;;5005100;28;19975;-66
2023/01/22 11:26:40;;;;;;;;;;;3.20;99.90;;;;;;5004055;28;19925;-66
2023/01/22 11:29:24;;;;;;;;;;;3.30;99.90;;;;;;5023038;28;19909;-63
2023/01/22 11:31:56;;;;;;;;;;;3.30;99.90;;;;;;5009751;28;19916;-62
2023/01/22 11:34:27;;;;;;;;;;;3.70;99.90;;;;;;5001500;28;20341;-63
2023/01/22 11:37:13;;;;;;;;;;;4.30;99.90;;;;;;5005273;28;19909;-62
2023/01/22 11:40:03;;;;;;;;;;;4.80;99.90;;;;;;5000873;28;19909;-62
2023/01/22 11:42:44;;;;;;;;;;;5.30;99.90;;;;;;5007194;28;19909;-63
2023/01/22 11:45:21;;;;;;;;;;;5.70;99.90;;;;;;5006487;28;19913;-63
2023/01/22 11:47:50;;;;;;;;;;;5.90;99.90;;;;;;5010690;28;19929;-62
2023/01/22 11:50:38;;;;;;;;;;;6.30;99.90;;;;;;5002601;28;19909;-62
2023/01/22 11:53:13;;;;;;;;;;;6.60;99.90;;;;;;4999855;28;19960;-62
2023/01/22 11:55:44;;;;;;;;;;;6.90;99.90;;;;;;5005633;28;19913;-63
2023/01/22 11:58:16;;;;;;;;;;;7.20;99.90;;;;;;5002533;28;20307;-63
2023/01/22 12:00:57;;;;;;;;;;;7.50;99.90;;;;;;5003800;28;20273;-63
2023/01/22 12:03:43;;;;;;;;;;;7.70;99.90;;;;;;5009671;28;19910;-63
2023/01/22 12:06:15;;;;;;;;;;;7.90;99.90;;;;;;5006183;28;19921;-64
2023/01/22 12:08:40;;;;;;;;;;;7.90;99.90;;;;;;4995407;28;20014;-64
2023/01/22 12:11:35;;;;;;;;;;;8.10;99.90;;;;;;5005371;28;19960;-64
2023/01/22 12:14:19;;;;;;;;;;;7.90;99.90;;;;;;5000718;28;19909;-62
2023/01/22 12:16:47;;;;;;;;;;;8.30;99.90;;;;;;4996791;28;19910;-63
2023/01/22 12:19:32;;;;;;;;;;;8.70;99.90;;;;;;4998209;28;20250;-63
2023/01/22 12:21:57;;;;;;;;;;;9.10;99.90;;;;;;5004430;28;19909;-63
2023/01/22 12:24:29;;;;;;;;;;;9.20;99.90;;;;;;4999570;28;20281;-64
2023/01/22 12:26:58;;;;;;;;;;;9.20;99.90;;;;;;5007530;28;20332;-63
2023/01/22 12:29:28;;;;;;;;;;;9.40;99.90;;;;;;5002935;28;20025;-63
2023/01/22 12:31:57;;;;;;;;;;;9.30;99.90;;;;;;5008256;28;20329;-63
2023/01/22 12:34:39;;;;;;;;;;;9.60;99.90;;;;;;5000378;28;19916;-63
2023/01/22 12:37:06;;;;;;;;;;;9.80;99.90;;;;;;5003546;28;19913;-63
2023/01/22 12:39:38;;;;;;;;;;;9.60;99.90;;;;;;4994530;28;19914;-64
2023/01/22 12:42:21;;;;;;;;;;;9.80;99.90;;;;;;5002819;28;19915;-63
2023/01/22 12:44:49;;;;;;;;;;;10.00;99.90;;;;;;5007393;28;19924;-63
2023/01/22 12:47:24;;;;;;;;;;;10.30;99.90;;;;;;5004018;28;19917;-63
2023/01/22 12:49:51;;;;;;;;;;;10.10;99.90;;;;;;4999050;28;20321;-64
2023/01/22 12:52:28;;;;;;;;;;;10.10;99.90;;;;;;5009461;28;19917;-63
2023/01/22 12:54:53;;;;;;;;;;;10.10;99.90;;;;;;4998420;28;19949;-64
2023/01/22 12:57:22;;;;;;;;;;;10.00;99.90;;;;;;5005020;28;19944;-63
2023/01/22 12:59:49;;;;;;;;;;;9.90;99.90;;;;;;4996840;28;19913;-63
2023/01/22 13:02:30;;;;;;;;;;;9.70;99.90;;;;;;5010355;28;20280;-63
2023/01/22 13:05:09;;;;;;;;;;;10.40;99.90;;;;;;5010796;28;19917;-62
2023/01/22 13:07:36;;;;;;;;;;;10.70;99.90;;;;;;5004703;28;19923;-63
2023/01/22 13:10:20;;;;;;;;;;;10.20;99.90;;;;;;5011429;28;19918;-63
2023/01/22 13:12:48;;;;;;;;;;;10.00;99.90;;;;;;5003505;28;20331;-64
2023/01/22 13:15:20;;;;;;;;;;;9.10;99.90;;;;;;4996952;28;19917;-63
2023/01/22 13:17:52;;;;;;;;;;;8.20;99.90;;;;;;5003200;28;20004;-62
2023/01/22 13:20:18;;;;;;;;;;;7.70;99.90;;;;;;5000068;28;19920;-64
2023/01/22 13:22:44;;;;;;;;;;;7.40;99.90;;;;;;5003048;28;20004;-63
2023/01/22 13:25:23;;;;;;;;;;;7.30;99.90;;;;;;4996348;28;20013;-63
2023/01/22 13:27:49;;;;;;;;;;;7.30;99.90;;;;;;4993558;28;20389;-63
2023/01/22 13:30:16;;;;;;;;;;;7.40;99.90;;;;;;4996024;28;19917;-63
2023/01/22 13:32:42;;;;;;;;;;;7.40;99.90;;;;;;5001427;28;19910;-63
2023/01/22 13:35:12;;;;;;;;;;;7.20;99.90;;;;;;5005799;28;20007;-63
2023/01/22 13:37:40;;;;;;;;;;;7.00;99.90;;;;;;4999185;28;19921;-62
2023/01/22 13:40:13;;;;;;;;;;;6.90;99.90;;;;;;5007215;28;19945;-63
2023/01/22 13:42:42;;;;;;;;;;;6.90;99.90;;;;;;5013821;28;20385;-63
2023/01/22 13:45:13;;;;;;;;;;;7.10;99.90;;;;;;5002420;28;19917;-63
2023/01/22 13:47:38;;;;;;;;;;;7.60;99.90;;;;;;5004453;28;19931;-64
2023/01/22 13:50:04;;;;;;;;;;;8.30;99.90;;;;;;4993860;28;20390;-63
2023/01/22 13:52:32;;;;;;;;;;;9.20;99.90;;;;;;4997458;28;19910;-63
2023/01/22 13:55:04;;;;;;;;;;;9.50;99.90;;;;;;5000017;28;19913;-63
2023/01/22 13:57:30;;;;;;;;;;;9.80;99.90;;;;;;4999359;28;20355;-64
2023/01/22 14:00:00;;;;;;;;;;;10.20;99.90;;;;;;4999482;28;19910;-63
2023/01/22 14:02:33;;;;;;;;;;;10.40;99.90;;;;;;5007621;28;20376;-63
2023/01/22 14:04:59;;;;;;;;;;;10.90;98.50;;;;;;5010314;28;19913;-63
2023/01/22 14:07:27;;;;;;;;;;;11.30;96.30;;;;;;4998365;28;20011;-63
2023/01/22 14:09:53;;;;;;;;;;;11.70;93.70;;;;;;4996094;28;19964;-63
2023/01/22 14:12:20;;;;;;;;;;;12.00;92.50;;;;;;5001957;28;20020;-63
2023/01/22 14:14:46;;;;;;;;;;;11.80;91.60;;;;;;5004853;28;19909;-63
2023/01/22 14:17:22;;;;;;;;;;;11.90;91.80;;;;;;4996204;28;20354;-64
2023/01/22 14:19:47;;;;;;;;;;;11.90;90.10;;;;;;4999603;28;19917;-64
2023/01/22 14:22:13;;;;;;;;;;;11.90;90.00;;;;;;5008988;28;19967;-63
2023/01/22 14:24:38;;;;;;;;;;;11.70;90.00;;;;;;4998400;28;19964;-63
2023/01/22 14:27:04;;;;;;;;;;;12.00;89.50;;;;;;5002382;28;19997;-63
2023/01/22 14:29:30;;;;;;;;;;;11.50;89.10;;;;;;5002158;28;19910;-63
2023/01/22 14:31:55;;;;;;;;;;;11.70;88.80;;;;;;5007853;28;20002;-63
2023/01/22 14:34:21;;;;;;;;;;;11.90;86.40;;;;;;5006237;28;20327;-63
2023/01/22 14:36:48;;;;;;;;;;;12.30;86.70;;;;;;4999575;28;20365;-62
2023/01/22 14:39:13;;;;;;;;;;;12.40;85.00;;;;;;5000344;28;19913;-62
2023/01/22 14:41:39;;;;;;;;;;;12.40;83.90;;;;;;4993591;28;20008;-64
2023/01/22 14:44:05;;;;;;;;;;;12.20;83.60;;;;;;4993038;28;19918;-62
2023/01/22 14:46:30;;;;;;;;;;;11.90;84.40;;;;;;4993946;28;20059;-63